Time;durP1;ratioP1;P1;durP2;ratioP2;P2;SDS_P1;SDS_P2;PMS_P1;PMS_P2;Temp;Humidity;BMP_temperature;BMP_pressure;BME280_temperature;BME280_humidity;BME280_pressure;Samples;Min_cycle;Max_cycle;Signal;HPM_P1;HPM_P2
2023/12/13 00:02:02;;;;;;;0.10;0.10;;;20.00;50.80;;;;;;5063403;28;20222;-47
2023/12/13 00:04:34;;;;;;;0.10;0.10;;;20.10;50.80;;;;;;5065071;28;20663;-49
2023/12/13 00:07:06;;;;;;;0.00;0.00;;;20.10;50.80;;;;;;5051419;28;20658;-50
2023/12/13 00:09:37;;;;;;;0.00;0.00;;;20.10;50.80;;;;;;5069552;28;20187;-46
2023/12/13 00:12:08;;;;;;;0.00;0.00;;;20.20;50.80;;;;;;5070828;28;20639;-47
2023/12/13 00:14:39;;;;;;;0.00;0.00;;;20.20;50.40;;;;;;5070804;28;20655;-52
2023/12/13 00:17:10;;;;;;;0.00;0.00;;;20.30;50.20;;;;;;5061969;28;20195;-54
2023/12/13 00:19:41;;;;;;;0.00;0.00;;;20.30;50.00;;;;;;5051127;28;20231;-52
2023/12/13 00:22:14;;;;;;;0.00;0.00;;;20.30;49.90;;;;;;5058814;28;20222;-53
2023/12/13 00:24:44;;;;;;;0.10;0.10;;;20.40;49.90;;;;;;5060131;28;20188;-52
2023/12/13 00:27:15;;;;;;;0.00;0.00;;;20.40;49.80;;;;;;5058551;28;20218;-51
2023/12/13 00:29:46;;;;;;;0.00;0.00;;;20.50;49.60;;;;;;5065518;28;20191;-53
2023/12/13 00:32:16;;;;;;;0.00;0.00;;;20.50;49.40;;;;;;5060508;28;20208;-49
2023/12/13 00:34:47;;;;;;;0.08;0.08;;;20.50;49.30;;;;;;5051799;28;20202;-48
2023/12/13 00:37:20;;;;;;;0.00;0.00;;;20.50;49.80;;;;;;5051153;28;20565;-52
2023/12/13 00:39:51;;;;;;;0.00;0.00;;;20.60;49.30;;;;;;5050934;28;20600;-48
2023/12/13 00:42:21;;;;;;;0.00;0.00;;;20.60;49.20;;;;;;5056744;28;20210;-48
2023/12/13 00:44:52;;;;;;;0.10;0.10;;;20.60;49.20;;;;;;5070849;28;20199;-50
2023/12/13 00:47:23;;;;;;;0.00;0.00;;;20.60;49.00;;;;;;5060647;28;20192;-53
2023/12/13 00:49:54;;;;;;;0.00;0.00;;;20.70;49.00;;;;;;5050434;28;20286;-53
2023/12/13 00:52:26;;;;;;;0.00;0.00;;;20.70;49.00;;;;;;5051837;28;20218;-47
2023/12/13 00:55:00;;;;;;;0.00;0.00;;;20.70;49.00;;;;;;5070199;28;20195;-48
2023/12/13 00:57:31;;;;;;;0.00;0.00;;;20.70;49.10;;;;;;5059543;28;20195;-48
2023/12/13 01:00:02;;;;;;;0.10;0.10;;;20.80;49.10;;;;;;5049370;28;20230;-47
2023/12/13 01:02:33;;;;;;;0.00;0.00;;;20.80;48.90;;;;;;5050336;28;20216;-46
2023/12/13 01:05:04;;;;;;;0.00;0.00;;;20.90;49.10;;;;;;5050022;28;20223;-46
2023/12/13 01:07:37;;;;;;;0.00;0.00;;;20.90;49.10;;;;;;5050527;28;20247;-48
2023/12/13 01:10:08;;;;;;;0.10;0.10;;;20.90;49.30;;;;;;5069056;28;20202;-50
2023/12/13 01:12:42;;;;;;;0.10;0.10;;;20.90;49.30;;;;;;5059296;28;20216;-52
2023/12/13 01:15:13;;;;;;;0.10;0.10;;;21.00;49.40;;;;;;5050774;28;20667;-46
2023/12/13 01:17:43;;;;;;;0.00;0.00;;;21.00;49.20;;;;;;5050904;28;20188;-51
2023/12/13 01:20:15;;;;;;;0.00;0.00;;;21.10;49.10;;;;;;5070047;28;20222;-48
2023/12/13 01:22:47;;;;;;;0.00;0.00;;;21.00;49.20;;;;;;5069098;28;20215;-47
2023/12/13 01:25:18;;;;;;;0.10;0.10;;;21.10;49.20;;;;;;5070414;28;20191;-46
2023/12/13 01:27:49;;;;;;;0.00;0.00;;;21.20;49.30;;;;;;5058564;28;20199;-50
2023/12/13 01:30:19;;;;;;;0.00;0.00;;;21.20;49.30;;;;;;5050431;28;20192;-52
2023/12/13 01:32:50;;;;;;;0.00;0.00;;;21.20;49.20;;;;;;5056553;28;20207;-49
2023/12/13 01:35:22;;;;;;;0.10;0.10;;;21.20;49.80;;;;;;5050940;28;20563;-48
2023/12/13 01:37:54;;;;;;;0.05;0.05;;;21.20;49.70;;;;;;5059561;28;20402;-49
2023/12/13 01:40:25;;;;;;;0.00;0.00;;;21.20;49.00;;;;;;5050283;28;20234;-49
2023/12/13 01:42:56;;;;;;;0.03;0.03;;;21.30;49.20;;;;;;5050414;28;20211;-50
2023/12/13 01:45:26;;;;;;;0.00;0.00;;;21.30;49.20;;;;;;5056517;28;20773;-49
2023/12/13 01:47:57;;;;;;;0.00;0.00;;;21.40;49.10;;;;;;5066959;28;20202;-52
2023/12/13 01:50:29;;;;;;;0.00;0.00;;;21.40;49.10;;;;;;5073679;28;20210;-47
2023/12/13 01:53:01;;;;;;;0.00;0.00;;;21.40;49.00;;;;;;5072565;28;20304;-49
2023/12/13 01:55:32;;;;;;;0.00;0.00;;;21.40;48.90;;;;;;5074411;28;20205;-49
2023/12/13 01:58:05;;;;;;;0.00;0.00;;;21.40;48.90;;;;;;5062645;28;20199;-50
2023/12/13 02:00:36;;;;;;;0.00;0.00;;;21.50;49.00;;;;;;5054677;28;20199;-47
2023/12/13 02:03:07;;;;;;;0.00;0.00;;;21.50;48.90;;;;;;5067118;28;20221;-48
2023/12/13 02:05:40;;;;;;;0.00;0.00;;;21.50;48.90;;;;;;5073666;28;20218;-54
2023/12/13 02:08:12;;;;;;;0.00;0.00;;;21.60;48.80;;;;;;5061363;28;20188;-56
2023/12/13 02:10:44;;;;;;;0.00;0.00;;;21.60;48.80;;;;;;5053265;28;20655;-53
2023/12/13 02:13:15;;;;;;;0.00;0.00;;;21.70;48.90;;;;;;5056210;28;20222;-53
2023/12/13 02:15:47;;;;;;;0.00;0.00;;;21.60;48.80;;;;;;5058304;28;20195;-56
2023/12/13 02:18:19;;;;;;;0.00;0.00;;;21.70;48.80;;;;;;5060508;28;20261;-52
2023/12/13 02:20:51;;;;;;;0.00;0.00;;;21.70;48.70;;;;;;5053630;28;20206;-50
2023/12/13 02:23:23;;;;;;;0.10;0.10;;;21.70;48.70;;;;;;5061950;28;20215;-51
2023/12/13 02:26:01;;;;;;;0.00;0.00;;;21.80;48.80;;;;;;5072522;28;20227;-54
2023/12/13 02:28:32;;;;;;;0.00;0.00;;;21.80;48.90;;;;;;5060044;28;20674;-50
2023/12/13 02:31:03;;;;;;;0.00;0.00;;;21.80;48.90;;;;;;5071875;28;20199;-47
2023/12/13 02:33:34;;;;;;;0.00;0.00;;;21.80;48.80;;;;;;5059606;28;20246;-47
2023/12/13 02:36:05;;;;;;;0.00;0.00;;;21.90;48.80;;;;;;5053138;28;20532;-49
2023/12/13 02:38:40;;;;;;;0.00;0.00;;;21.90;48.70;;;;;;5052288;28;20202;-46
2023/12/13 02:41:11;;;;;;;0.00;0.00;;;21.90;48.80;;;;;;5055538;28;20186;-48
2023/12/13 02:43:41;;;;;;;0.00;0.00;;;21.90;48.70;;;;;;5058565;28;20402;-48
2023/12/13 02:46:12;;;;;;;0.00;0.00;;;22.00;48.60;;;;;;5053808;28;20694;-49
2023/12/13 02:48:43;;;;;;;0.00;0.00;;;22.00;48.60;;;;;;5053633;28;20206;-48
2023/12/13 02:51:13;;;;;;;0.00;0.00;;;22.00;48.50;;;;;;5053174;28;20666;-48
2023/12/13 02:53:46;;;;;;;0.03;0.03;;;22.00;48.40;;;;;;5064819;28;20710;-50
2023/12/13 02:56:17;;;;;;;0.00;0.00;;;22.10;48.40;;;;;;5073170;28;20198;-48
2023/12/13 02:58:47;;;;;;;0.10;0.10;;;22.10;48.30;;;;;;5073160;28;20199;-49
2023/12/13 03:01:18;;;;;;;0.05;0.05;;;22.20;48.20;;;;;;5073071;28;20261;-48
2023/12/13 03:03:49;;;;;;;0.00;0.00;;;22.20;48.00;;;;;;5072748;28;20605;-47
2023/12/13 03:06:19;;;;;;;0.00;0.00;;;22.20;48.00;;;;;;5072673;28;20219;-52
2023/12/13 03:08:52;;;;;;;0.05;0.05;;;22.30;47.90;;;;;;5073161;28;20192;-49
2023/12/13 03:11:23;;;;;;;0.00;0.00;;;22.30;47.70;;;;;;5072980;28;20206;-52
2023/12/13 03:13:53;;;;;;;0.00;0.00;;;22.30;47.70;;;;;;5059238;28;20697;-52
2023/12/13 03:16:24;;;;;;;0.05;0.05;;;22.30;47.70;;;;;;5072226;28;20195;-53
2023/12/13 03:18:55;;;;;;;0.00;0.00;;;22.40;47.60;;;;;;5062654;28;20192;-53
2023/12/13 03:21:26;;;;;;;0.00;0.00;;;22.40;47.50;;;;;;5052399;28;20202;-49
2023/12/13 03:23:58;;;;;;;0.00;0.00;;;22.40;47.60;;;;;;5071206;28;20214;-53
2023/12/13 03:26:29;;;;;;;0.00;0.00;;;22.40;47.60;;;;;;5072080;28;20241;-54
2023/12/13 03:29:00;;;;;;;0.00;0.00;;;22.40;47.60;;;;;;5052341;28;20652;-51
2023/12/13 03:31:30;;;;;;;0.10;0.10;;;22.40;47.60;;;;;;5065319;28;20194;-49
2023/12/13 03:34:01;;;;;;;0.00;0.00;;;22.50;47.60;;;;;;5071604;28;20578;-49
2023/12/13 03:36:32;;;;;;;0.00;0.00;;;22.50;47.50;;;;;;5072158;28;20201;-53
2023/12/13 03:39:04;;;;;;;0.00;0.00;;;22.60;47.40;;;;;;5070504;28;20207;-51
2023/12/13 03:41:35;;;;;;;0.00;0.00;;;22.60;47.30;;;;;;5063060;28;20671;-52
2023/12/13 03:44:06;;;;;;;0.00;0.00;;;22.60;47.30;;;;;;5058698;28;20245;-53
2023/12/13 03:46:37;;;;;;;0.00;0.00;;;22.70;47.40;;;;;;5072566;28;20222;-47
2023/12/13 03:49:07;;;;;;;0.00;0.00;;;22.70;47.30;;;;;;5052258;28;20206;-50
2023/12/13 03:51:38;;;;;;;0.05;0.05;;;22.70;47.20;;;;;;5066752;28;20201;-49
2023/12/13 03:54:11;;;;;;;0.00;0.00;;;22.70;47.30;;;;;;5071493;28;20223;-51
2023/12/13 03:56:41;;;;;;;0.10;0.10;;;22.80;47.30;;;;;;5069300;28;20186;-52
2023/12/13 03:59:12;;;;;;;0.00;0.00;;;22.80;47.40;;;;;;5052538;28;20574;-53
2023/12/13 04:01:43;;;;;;;0.00;0.00;;;22.90;47.40;;;;;;5050866;28;20569;-52
2023/12/13 04:04:14;;;;;;;0.00;0.00;;;22.90;47.20;;;;;;5056345;28;20686;-55
2023/12/13 04:06:44;;;;;;;0.10;0.10;;;22.90;47.00;;;;;;5053568;28;20241;-47
2023/12/13 04:09:17;;;;;;;0.00;0.00;;;22.90;47.00;;;;;;5070724;28;20194;-51
2023/12/13 04:11:48;;;;;;;0.00;0.00;;;23.00;47.10;;;;;;5055609;28;20210;-52
2023/12/13 04:14:18;;;;;;;0.00;0.00;;;23.00;47.00;;;;;;5050798;28;20762;-47
2023/12/13 04:16:49;;;;;;;0.00;0.00;;;23.00;47.00;;;;;;5051229;28;20235;-50
2023/12/13 04:19:20;;;;;;;0.00;0.00;;;23.00;46.90;;;;;;5063984;28;20191;-52
2023/12/13 04:21:51;;;;;;;0.00;0.00;;;23.00;47.00;;;;;;5070855;28;20562;-50
2023/12/13 04:24:23;;;;;;;0.00;0.00;;;23.10;47.10;;;;;;5067382;28;20704;-48
2023/12/13 04:26:54;;;;;;;0.05;0.05;;;23.10;47.00;;;;;;5071061;28;20715;-56
2023/12/13 04:29:25;;;;;;;0.00;0.00;;;23.10;46.90;;;;;;5051046;28;20191;-52
2023/12/13 04:31:55;;;;;;;0.00;0.00;;;23.10;46.90;;;;;;5052779;28;20202;-50
2023/12/13 04:34:26;;;;;;;0.08;0.08;;;23.20;46.90;;;;;;5070534;28;20558;-50
2023/12/13 04:36:57;;;;;;;0.00;0.00;;;23.20;46.80;;;;;;5071609;28;20472;-47
2023/12/13 04:39:29;;;;;;;0.10;0.10;;;23.30;46.90;;;;;;5051524;28;20215;-47
2023/12/13 04:42:00;;;;;;;0.10;0.10;;;23.30;46.90;;;;;;5051203;28;20206;-48
2023/12/13 04:44:31;;;;;;;0.00;0.00;;;23.30;47.00;;;;;;5051053;28;20200;-47
2023/12/13 04:47:02;;;;;;;0.10;0.10;;;23.30;46.90;;;;;;5051578;28;20234;-50
2023/12/13 04:49:33;;;;;;;0.03;0.03;;;23.30;46.90;;;;;;5050465;28;20203;-48
2023/12/13 04:52:03;;;;;;;0.00;0.00;;;23.40;47.00;;;;;;5068246;28;20195;-49
2023/12/13 04:54:37;;;;;;;0.00;0.00;;;23.40;46.90;;;;;;5065081;28;20206;-49
2023/12/13 04:57:08;;;;;;;0.08;0.08;;;23.40;46.90;;;;;;5067046;28;20669;-46
2023/12/13 04:59:38;;;;;;;0.00;0.00;;;23.40;46.80;;;;;;5063607;28;20655;-49
2023/12/13 05:02:09;;;;;;;0.00;0.00;;;23.40;46.90;;;;;;5059396;28;20198;-47
2023/12/13 05:04:40;;;;;;;0.00;0.00;;;23.40;46.90;;;;;;5064719;28;20192;-47
2023/12/13 05:07:11;;;;;;;0.00;0.00;;;23.40;46.90;;;;;;5065699;28;20226;-49
2023/12/13 05:09:43;;;;;;;0.03;0.03;;;23.50;46.90;;;;;;5056258;28;20187;-46
2023/12/13 05:12:14;;;;;;;0.00;0.00;;;23.40;46.80;;;;;;5066533;28;20209;-47
2023/12/13 05:14:44;;;;;;;0.00;0.00;;;23.50;46.80;;;;;;5056516;28;20196;-47
2023/12/13 05:17:15;;;;;;;0.00;0.00;;;23.50;46.90;;;;;;5050588;28;20203;-49
2023/12/13 05:19:46;;;;;;;0.00;0.00;;;23.50;46.90;;;;;;5050530;28;20192;-46
2023/12/13 05:22:17;;;;;;;0.00;0.00;;;23.50;46.90;;;;;;5054216;28;20282;-50
2023/12/13 05:24:49;;;;;;;0.00;0.00;;;23.50;46.80;;;;;;5054606;28;20683;-49
2023/12/13 05:27:20;;;;;;;0.00;0.00;;;23.50;46.80;;;;;;5060051;28;20693;-55
2023/12/13 05:29:51;;;;;;;0.03;0.03;;;23.60;46.80;;;;;;5068113;28;20191;-54
2023/12/13 05:32:21;;;;;;;0.00;0.00;;;23.60;46.90;;;;;;5054288;28;20226;-49
2023/12/13 05:34:52;;;;;;;0.00;0.00;;;23.60;46.90;;;;;;5054150;28;20192;-52
2023/12/13 05:37:23;;;;;;;0.00;0.00;;;23.70;47.10;;;;;;5053925;28;20247;-49
2023/12/13 05:39:55;;;;;;;0.10;0.10;;;23.60;47.00;;;;;;5055223;28;20198;-57
2023/12/13 05:42:26;;;;;;;0.00;0.00;;;23.60;47.10;;;;;;5063629;28;20451;-52
2023/12/13 05:44:57;;;;;;;0.10;0.10;;;23.70;46.90;;;;;;5053679;28;20198;-51
2023/12/13 05:47:27;;;;;;;0.00;0.00;;;23.70;46.90;;;;;;5053729;28;20226;-48
2023/12/13 05:49:58;;;;;;;0.00;0.00;;;23.70;46.90;;;;;;5053078;28;20184;-50
2023/12/13 05:52:29;;;;;;;0.00;0.00;;;23.60;46.80;;;;;;5054906;28;20220;-49
2023/12/13 05:55:02;;;;;;;0.00;0.00;;;23.70;46.60;;;;;;5066184;28;20614;-51
2023/12/13 05:57:32;;;;;;;0.00;0.00;;;23.60;46.60;;;;;;5057805;28;20213;-50
2023/12/13 06:00:06;;;;;;;0.00;0.00;;;23.60;46.60;;;;;;5066991;28;20192;-52
2023/12/13 06:02:37;;;;;;;0.00;0.00;;;23.70;46.70;;;;;;5055802;28;20214;-51
2023/12/13 06:05:08;;;;;;;0.00;0.00;;;23.60;46.80;;;;;;5053641;28;20184;-52
2023/12/13 06:07:41;;;;;;;0.00;0.00;;;23.60;46.70;;;;;;5056029;28;20606;-50
2023/12/13 06:10:14;;;;;;;0.00;0.00;;;23.70;46.70;;;;;;5061501;28;20579;-50
2023/12/13 06:12:45;;;;;;;0.10;0.10;;;23.70;46.50;;;;;;5073000;28;20215;-49
2023/12/13 06:15:16;;;;;;;0.08;0.08;;;23.70;46.70;;;;;;5073175;28;20659;-46
2023/12/13 06:17:46;;;;;;;0.00;0.00;;;23.70;46.60;;;;;;5073162;28;20195;-50
2023/12/13 06:20:17;;;;;;;0.03;0.03;;;23.70;46.70;;;;;;5073699;28;20187;-50
2023/12/13 06:22:48;;;;;;;0.00;0.00;;;23.70;46.70;;;;;;5072955;28;20211;-51
2023/12/13 06:25:21;;;;;;;0.00;0.00;;;23.70;46.70;;;;;;5067272;28;20192;-56
2023/12/13 06:27:51;;;;;;;0.10;0.10;;;23.80;46.60;;;;;;5073685;28;20227;-56
2023/12/13 06:30:23;;;;;;;0.03;0.03;;;23.80;46.70;;;;;;5074120;28;20195;-55
2023/12/13 06:32:53;;;;;;;0.10;0.10;;;23.80;46.50;;;;;;5053704;28;20215;-56
2023/12/13 06:35:24;;;;;;;0.10;0.10;;;23.80;46.50;;;;;;5053462;28;20200;-56
2023/12/13 06:37:55;;;;;;;0.10;0.10;;;23.80;46.60;;;;;;5053444;28;20210;-56
2023/12/13 06:40:27;;;;;;;0.00;0.00;;;23.80;46.50;;;;;;5053642;28;20211;-54
2023/12/13 06:42:58;;;;;;;0.00;0.00;;;23.80;46.50;;;;;;5053562;28;20219;-52
2023/12/13 06:45:29;;;;;;;0.00;0.00;;;23.80;46.40;;;;;;5053026;28;20652;-57
2023/12/13 06:47:59;;;;;;;0.00;0.00;;;23.80;46.40;;;;;;5053222;28;20225;-56
2023/12/13 06:50:30;;;;;;;0.00;0.00;;;23.80;46.30;;;;;;5052860;28;20195;-54
2023/12/13 06:53:01;;;;;;;0.00;0.00;;;23.90;46.50;;;;;;5058429;28;20233;-54
2023/12/13 06:55:33;;;;;;;0.00;0.00;;;23.80;46.40;;;;;;5072745;28;20198;-56
2023/12/13 06:58:04;;;;;;;0.03;0.03;;;23.90;46.50;;;;;;5073330;28;20194;-52
2023/12/13 07:00:35;;;;;;;0.00;0.00;;;23.90;46.50;;;;;;5072039;28;20210;-57
2023/12/13 07:03:05;;;;;;;0.00;0.00;;;23.90;46.40;;;;;;5072900;28;20565;-56
2023/12/13 07:05:36;;;;;;;0.00;0.00;;;23.90;46.50;;;;;;5072696;28;20563;-53
2023/12/13 07:08:08;;;;;;;0.00;0.00;;;24.00;46.50;;;;;;5072936;28;20565;-56
2023/12/13 07:10:40;;;;;;;0.00;0.00;;;24.00;46.40;;;;;;5072695;28;20194;-55
2023/12/13 07:13:11;;;;;;;0.00;0.00;;;24.00;46.60;;;;;;5071055;28;20624;-54
2023/12/13 07:15:42;;;;;;;0.00;0.00;;;24.00;46.50;;;;;;5072445;28;20206;-56
2023/12/13 07:18:13;;;;;;;0.10;0.10;;;24.00;46.40;;;;;;5072897;28;20248;-57
2023/12/13 07:20:44;;;;;;;0.00;0.00;;;24.00;46.40;;;;;;5072830;28;20529;-56
2023/12/13 07:23:14;;;;;;;0.00;0.00;;;24.00;46.20;;;;;;5072274;28;20219;-55
2023/12/13 07:25:47;;;;;;;0.00;0.00;;;24.00;46.20;;;;;;5071476;28;20194;-53
2023/12/13 07:28:18;;;;;;;0.00;0.00;;;24.00;46.10;;;;;;5071244;28;20222;-55
2023/12/13 07:30:48;;;;;;;0.03;0.03;;;24.00;46.10;;;;;;5071009;28;20690;-55
2023/12/13 07:33:19;;;;;;;0.00;0.00;;;24.00;46.00;;;;;;5071999;28;20218;-57
2023/12/13 07:35:50;;;;;;;0.00;0.00;;;24.00;45.90;;;;;;5071200;28;20194;-54
2023/12/13 07:38:20;;;;;;;0.00;0.00;;;24.00;45.90;;;;;;5071699;28;20573;-57
2023/12/13 07:40:53;;;;;;;0.05;0.05;;;24.00;45.80;;;;;;5062928;28;20192;-53
2023/12/13 07:43:24;;;;;;;0.00;0.00;;;24.00;45.70;;;;;;5050952;28;20219;-54
2023/12/13 07:45:55;;;;;;;0.00;0.00;;;24.00;45.80;;;;;;5052341;28;20558;-53
2023/12/13 07:48:25;;;;;;;0.00;0.00;;;24.00;45.80;;;;;;5052152;28;20223;-53
2023/12/13 07:50:56;;;;;;;0.00;0.00;;;24.00;45.90;;;;;;5052220;28;20206;-55
2023/12/13 07:53:27;;;;;;;0.00;0.00;;;24.00;46.10;;;;;;5061686;28;20223;-53
2023/12/13 07:55:59;;;;;;;0.00;0.00;;;24.00;46.10;;;;;;5071954;28;20238;-54
2023/12/13 07:58:30;;;;;;;0.00;0.00;;;24.00;46.00;;;;;;5069701;28;20187;-49
2023/12/13 08:01:01;;;;;;;0.00;0.00;;;24.00;46.00;;;;;;5071004;28;20199;-56
2023/12/13 08:03:31;;;;;;;0.00;0.00;;;24.00;46.00;;;;;;5065678;28;20219;-56
2023/12/13 08:06:02;;;;;;;0.00;0.00;;;24.00;46.10;;;;;;5052036;28;20659;-56
2023/12/13 08:08:33;;;;;;;0.00;0.00;;;24.00;46.10;;;;;;5051473;28;20235;-56
2023/12/13 08:11:06;;;;;;;0.00;0.00;;;24.00;46.10;;;;;;5051536;28;20559;-52
2023/12/13 08:13:37;;;;;;;0.00;0.00;;;24.00;46.00;;;;;;5050799;28;20219;-52
2023/12/13 08:16:09;;;;;;;0.00;0.00;;;23.90;46.00;;;;;;5053707;28;20196;-53
2023/12/13 08:18:40;;;;;;;0.00;0.00;;;23.90;46.00;;;;;;5051840;28;20245;-52
2023/12/13 08:21:11;;;;;;;0.00;0.00;;;23.90;45.90;;;;;;5051606;28;20689;-55
2023/12/13 08:23:42;;;;;;;0.00;0.00;;;23.90;45.90;;;;;;5062465;28;20215;-48
2023/12/13 08:26:16;;;;;;;0.00;0.00;;;23.80;45.90;;;;;;5071660;28;20534;-53
2023/12/13 08:28:47;;;;;;;0.00;0.00;;;23.80;45.80;;;;;;5070670;28;20218;-50
2023/12/13 08:31:18;;;;;;;0.00;0.00;;;23.80;45.80;;;;;;5071319;28;20199;-54
2023/12/13 08:33:48;;;;;;;0.00;0.00;;;23.80;45.80;;;;;;5071478;28;20223;-55
2023/12/13 08:36:19;;;;;;;0.00;0.00;;;23.80;46.00;;;;;;5070697;28;20189;-53
2023/12/13 08:38:50;;;;;;;0.00;0.00;;;23.70;46.00;;;;;;5070637;28;20224;-52
2023/12/13 08:41:22;;;;;;;0.00;0.00;;;23.70;46.00;;;;;;5070541;28;20206;-52
2023/12/13 08:43:53;;;;;;;0.00;0.00;;;23.70;45.80;;;;;;5070825;28;20222;-50
2023/12/13 08:46:24;;;;;;;0.00;0.00;;;23.70;46.50;;;;;;5071854;28;20190;-49
2023/12/13 08:48:55;;;;;;;0.00;0.00;;;23.70;45.90;;;;;;5071261;28;20261;-52
2023/12/13 08:51:26;;;;;;;0.10;0.10;;;23.70;45.90;;;;;;5071071;28;20198;-51
2023/12/13 08:53:57;;;;;;;0.00;0.00;;;23.60;45.80;;;;;;5070339;28;20855;-50
2023/12/13 08:56:29;;;;;;;0.00;0.00;;;23.60;45.80;;;;;;5060373;28;20206;-51
2023/12/13 08:59:00;;;;;;;0.00;0.00;;;23.60;45.90;;;;;;5051210;28;20195;-51
2023/12/13 09:01:31;;;;;;;0.00;0.00;;;23.60;46.00;;;;;;5051353;28;20202;-51
2023/12/13 09:04:02;;;;;;;0.00;0.00;;;23.50;45.90;;;;;;5051536;28;20215;-49
2023/12/13 09:06:33;;;;;;;0.10;0.10;;;23.60;46.00;;;;;;5051607;28;20195;-53
2023/12/13 09:09:09;;;;;;;0.00;0.00;;;23.50;45.80;;;;;;5051071;28;20560;-52
2023/12/13 09:11:42;;;;;;;0.00;0.00;;;23.50;45.90;;;;;;5051103;28;20678;-49
2023/12/13 09:14:13;;;;;;;0.00;0.00;;;23.50;45.80;;;;;;5054881;28;20660;-52
2023/12/13 09:16:44;;;;;;;0.00;0.00;;;23.50;45.80;;;;;;5051026;28;20214;-49
2023/12/13 09:19:15;;;;;;;0.00;0.00;;;23.50;46.00;;;;;;5053283;28;20214;-45
2023/12/13 09:21:45;;;;;;;0.00;0.00;;;23.40;45.90;;;;;;5070542;28;20191;-48
2023/12/13 09:24:17;;;;;;;0.00;0.00;;;23.40;45.90;;;;;;5068066;28;20214;-52
2023/12/13 09:26:49;;;;;;;0.00;0.00;;;23.40;45.90;;;;;;5070024;28;20193;-50
2023/12/13 09:29:20;;;;;;;0.00;0.00;;;23.40;46.00;;;;;;5060761;28;20241;-53
2023/12/13 09:31:51;;;;;;;0.00;0.00;;;23.30;46.00;;;;;;5058276;28;20192;-51
2023/12/13 09:34:22;;;;;;;0.00;0.00;;;23.30;46.00;;;;;;5049958;28;20548;-49
2023/12/13 09:36:53;;;;;;;0.00;0.00;;;23.30;46.20;;;;;;5050122;28;20218;-54
2023/12/13 09:39:25;;;;;;;0.00;0.00;;;23.30;46.30;;;;;;5055959;28;20253;-54
2023/12/13 09:42:04;;;;;;;0.00;0.00;;;23.30;46.40;;;;;;5063187;28;20199;-51
2023/12/13 09:44:39;;;;;;;0.00;0.00;;;23.30;46.40;;;;;;5052059;28;20241;-52
2023/12/13 09:47:10;;;;;;;0.00;0.00;;;23.30;46.40;;;;;;5051021;28;20213;-49
2023/12/13 09:49:42;;;;;;;0.00;0.00;;;23.20;46.30;;;;;;5048957;28;20596;-46
2023/12/13 09:52:13;;;;;;;0.00;0.00;;;23.20;46.20;;;;;;5050658;28;20203;-48
2023/12/13 09:54:46;;;;;;;0.00;0.00;;;23.20;46.30;;;;;;5067688;28;20199;-50
2023/12/13 09:57:18;;;;;;;0.00;0.00;;;23.10;46.20;;;;;;5070990;28;20195;-48
2023/12/13 09:59:49;;;;;;;0.00;0.00;;;23.10;46.20;;;;;;5064929;28;20195;-49
2023/12/13 10:02:20;;;;;;;0.00;0.00;;;23.10;46.10;;;;;;5069237;28;20192;-48
2023/12/13 10:04:54;;;;;;;0.00;0.00;;;23.10;46.20;;;;;;5055465;28;20205;-49
2023/12/13 10:07:26;;;;;;;0.00;0.00;;;23.00;46.10;;;;;;5066034;28;20192;-47
2023/12/13 10:09:56;;;;;;;0.00;0.00;;;23.10;46.00;;;;;;5056691;28;20226;-53
2023/12/13 10:12:29;;;;;;;0.00;0.00;;;23.00;46.00;;;;;;5052801;28;20230;-48
2023/12/13 10:15:08;;;;;;;0.00;0.00;;;23.00;46.00;;;;;;5053967;28;20191;-52
2023/12/13 10:17:39;;;;;;;0.00;0.00;;;23.00;46.00;;;;;;5053013;28;20573;-49
2023/12/13 10:20:10;;;;;;;0.00;0.00;;;23.00;45.90;;;;;;5073585;28;20241;-46
2023/12/13 10:22:41;;;;;;;0.00;0.00;;;23.00;46.00;;;;;;5065634;28;20222;-46
2023/12/13 10:25:12;;;;;;;0.10;0.10;;;22.90;46.20;;;;;;5053699;28;20201;-50
2023/12/13 10:27:46;;;;;;;0.00;0.00;;;22.90;46.20;;;;;;5059404;28;20210;-47
2023/12/13 10:30:20;;;;;;;0.00;0.00;;;22.90;46.30;;;;;;5072830;28;20225;-47
2023/12/13 10:32:50;;;;;;;0.00;0.00;;;22.80;46.40;;;;;;5068496;28;20222;-48
2023/12/13 10:35:22;;;;;;;0.00;0.00;;;22.80;46.20;;;;;;5052546;28;20207;-50
2023/12/13 10:37:57;;;;;;;0.10;0.10;;;22.80;46.30;;;;;;5053570;28;20202;-45
2023/12/13 10:40:28;;;;;;;0.00;0.00;;;22.80;46.30;;;;;;5052107;28;20249;-47
2023/12/13 10:43:01;;;;;;;0.00;0.00;;;22.80;46.30;;;;;;5054921;28;20218;-48
2023/12/13 10:45:35;;;;;;;0.00;0.00;;;22.70;46.30;;;;;;5053008;28;20200;-49
2023/12/13 10:48:10;;;;;;;0.00;0.00;;;22.70;46.20;;;;;;5052590;28;20211;-50
2023/12/13 10:50:42;;;;;;;0.10;0.10;;;22.70;46.30;;;;;;5052185;28;20215;-48
2023/12/13 10:53:14;;;;;;;0.00;0.00;;;22.70;46.40;;;;;;5054798;28;20269;-46
2023/12/13 10:55:46;;;;;;;0.00;0.00;;;22.60;46.30;;;;;;5055160;28;20202;-47
2023/12/13 10:58:21;;;;;;;0.00;0.00;;;22.70;46.20;;;;;;5053135;28;20188;-48
2023/12/13 11:00:52;;;;;;;0.00;0.00;;;22.60;46.20;;;;;;5052553;28;20195;-51
2023/12/13 11:03:29;;;;;;;0.00;0.00;;;22.60;46.20;;;;;;5058152;28;20206;-56
2023/12/13 11:06:04;;;;;;;0.00;0.00;;;22.60;46.30;;;;;;5072816;28;20624;-56
2023/12/13 11:08:41;;;;;;;0.00;0.00;;;22.50;46.20;;;;;;5058450;28;20214;-54
2023/12/13 11:11:13;;;;;;;0.00;0.00;;;22.50;46.10;;;;;;5063365;28;20208;-56
2023/12/13 11:13:51;;;;;;;0.10;0.10;;;22.50;46.00;;;;;;5064548;28;20215;-54
2023/12/13 11:16:23;;;;;;;0.00;0.00;;;22.50;46.10;;;;;;5068759;28;20201;-56
2023/12/13 11:18:55;;;;;;;0.10;0.10;;;22.40;46.10;;;;;;5071679;28;20199;-55
2023/12/13 11:21:31;;;;;;;0.00;0.00;;;22.40;46.10;;;;;;5066473;28;20199;-53
2023/12/13 11:24:11;;;;;;;0.10;0.10;;;22.40;46.10;;;;;;5066991;28;20751;-55
2023/12/13 11:26:46;;;;;;;0.00;0.00;;;22.40;46.10;;;;;;5072963;28;20194;-55
2023/12/13 11:29:20;;;;;;;0.00;0.00;;;22.40;46.10;;;;;;5071145;28;20213;-53
2023/12/13 11:31:56;;;;;;;0.10;0.10;;;22.40;46.10;;;;;;5073065;28;20201;-53
2023/12/13 11:34:38;;;;;;;0.00;0.00;;;22.40;46.20;;;;;;5072634;28;20229;-49
2023/12/13 11:37:10;;;;;;;0.00;0.00;;;22.30;46.10;;;;;;5072639;28;20195;-50
2023/12/13 11:39:42;;;;;;;0.00;0.00;;;22.30;46.10;;;;;;5072458;28;20202;-53
2023/12/13 11:42:15;;;;;;;0.10;0.10;;;22.30;46.20;;;;;;5072460;28;20187;-51
2023/12/13 11:44:48;;;;;;;0.00;0.00;;;22.30;46.10;;;;;;5072517;28;20650;-52
2023/12/13 11:47:18;;;;;;;0.10;0.10;;;22.30;46.30;;;;;;5072877;28;20210;-50
2023/12/13 11:49:49;;;;;;;0.00;0.00;;;22.20;46.20;;;;;;5072431;28;20239;-52
2023/12/13 11:52:20;;;;;;;0.00;0.00;;;22.20;46.20;;;;;;5068816;28;20194;-50
2023/12/13 11:54:51;;;;;;;0.00;0.00;;;22.20;46.30;;;;;;5062767;28;20569;-54
2023/12/13 11:57:22;;;;;;;0.00;0.00;;;22.20;46.40;;;;;;5060577;28;20510;-54
2023/12/13 11:59:55;;;;;;;0.00;0.00;;;22.10;46.30;;;;;;5061252;28;20191;-53
2023/12/13 12:02:26;;;;;;;0.00;0.00;;;22.10;46.40;;;;;;5060909;28;20207;-50
2023/12/13 12:04:56;;;;;;;0.00;0.00;;;22.10;46.40;;;;;;5062541;28;20191;-50
2023/12/13 12:07:27;;;;;;;0.00;0.00;;;22.10;46.50;;;;;;5060886;28;20644;-52
2023/12/13 12:09:58;;;;;;;0.00;0.00;;;22.00;47.00;;;;;;5062361;28;20226;-53
2023/12/13 12:12:28;;;;;;;0.00;0.00;;;22.00;46.40;;;;;;5061284;28;20277;-51
2023/12/13 12:15:01;;;;;;;0.00;0.00;;;22.00;47.00;;;;;;5060620;28;20218;-51
2023/12/13 12:17:32;;;;;;;0.00;0.00;;;22.00;46.30;;;;;;5061851;28;20190;-55
2023/12/13 12:20:03;;;;;;;0.10;0.10;;;22.00;46.40;;;;;;5060516;28;20184;-53
2023/12/13 12:22:37;;;;;;;0.00;0.00;;;22.00;46.50;;;;;;5062868;28;20301;-53
2023/12/13 12:25:08;;;;;;;0.00;0.00;;;22.00;46.40;;;;;;5060833;28;20195;-50
2023/12/13 12:27:46;;;;;;;0.00;0.00;;;21.90;46.50;;;;;;5066356;28;20194;-55
2023/12/13 12:30:21;;;;;;;0.00;0.00;;;21.90;46.40;;;;;;5071640;28;20222;-48
2023/12/13 12:32:52;;;;;;;0.00;0.00;;;21.90;46.50;;;;;;5071641;28;20289;-53
2023/12/13 12:35:23;;;;;;;0.00;0.00;;;21.90;46.50;;;;;;5071724;28;20207;-50
2023/12/13 12:37:54;;;;;;;0.00;0.00;;;21.80;46.50;;;;;;5071488;28;20194;-54
2023/12/13 12:40:25;;;;;;;0.00;0.00;;;21.80;46.50;;;;;;5071525;28;20202;-50
2023/12/13 12:42:55;;;;;;;0.00;0.00;;;21.80;46.50;;;;;;5071544;28;20218;-54
2023/12/13 12:45:28;;;;;;;0.03;0.03;;;21.80;46.50;;;;;;5071602;28;20677;-54
2023/12/13 12:47:59;;;;;;;0.10;0.10;;;21.80;46.50;;;;;;5071327;28;20726;-55
2023/12/13 12:50:30;;;;;;;0.00;0.00;;;21.70;46.40;;;;;;5071526;28;20226;-51
2023/12/13 12:53:01;;;;;;;0.00;0.00;;;21.80;46.40;;;;;;5071325;28;20702;-52
2023/12/13 12:55:31;;;;;;;0.00;0.00;;;21.70;46.40;;;;;;5071582;28;20283;-49
2023/12/13 12:58:02;;;;;;;0.00;0.00;;;21.70;46.40;;;;;;5071575;28;20194;-52
2023/12/13 13:00:35;;;;;;;0.00;0.00;;;21.70;46.40;;;;;;5071235;28;20775;-46
2023/12/13 13:03:06;;;;;;;0.00;0.00;;;21.70;46.50;;;;;;5070979;28;20215;-48
2023/12/13 13:05:37;;;;;;;0.00;0.00;;;21.60;46.30;;;;;;5070997;28;20390;-48
2023/12/13 13:08:08;;;;;;;0.00;0.00;;;21.60;46.30;;;;;;5071523;28;20197;-48
2023/12/13 13:10:39;;;;;;;0.00;0.00;;;21.60;46.30;;;;;;5071217;28;20230;-48